sensor_id;sensor_type;location;lat;lon;timestamp;pressure;altitude;pressure_sealevel;temperature;humidity
12178;BME280;6152;48.728;9.256;2023-04-24T00:02:03;96089.81;;;9.82;100.00
12178;BME280;6152;48.728;9.256;2023-04-24T00:04:30;96101.16;;;9.81;100.00
12178;BME280;6152;48.728;9.256;2023-04-24T00:06:58;96100.44;;;9.79;100.00
12178;BME280;6152;48.728;9.256;2023-04-24T00:09:26;96103.03;;;9.79;100.00
12178;BME280;6152;48.728;9.256;2023-04-24T00:11:52;96105.97;;;9.74;100.00
12178;BME280;6152;48.728;9.256;2023-04-24T00:14:18;96115.53;;;9.74;100.00
12178;BME280;6152;48.728;9.256;2023-04-24T00:16:44;96116.13;;;9.77;100.00
12178;BME280;6152;48.728;9.256;2023-04-24T00:19:11;96108.25;;;9.79;100.00
12178;BME280;6152;48.728;9.256;2023-04-24T00:21:38;96112.59;;;9.78;100.00
12178;BME280;6152;48.728;9.256;2023-04-24T00:24:04;96108.44;;;9.76;100.00
12178;BME280;6152;48.728;9.256;2023-04-24T00:26:30;96118.81;;;9.76;100.00
12178;BME280;6152;48.728;9.256;2023-04-24T00:28:56;96125.31;;;9.70;100.00
12178;BME280;6152;48.728;9.256;2023-04-24T00:31:22;96131.56;;;9.68;100.00
12178;BME280;6152;48.728;9.256;2023-04-24T00:33:49;96126.59;;;9.64;100.00
12178;BME280;6152;48.728;9.256;2023-04-24T00:36:15;96112.66;;;9.65;100.00
12178;BME280;6152;48.728;9.256;2023-04-24T00:38:41;96112.66;;;9.65;100.00
12178;BME280;6152;48.728;9.256;2023-04-24T00:41:07;96103.69;;;9.70;100.00
12178;BME280;6152;48.728;9.256;2023-04-24T00:43:33;96108.78;;;9.71;100.00
12178;BME280;6152;48.728;9.256;2023-04-24T00:45:59;96112.44;;;9.69;100.00
12178;BME280;6152;48.728;9.256;2023-04-24T00:48:28;96096.88;;;9.69;100.00
12178;BME280;6152;48.728;9.256;2023-04-24T00:50:54;96102.88;;;9.69;100.00
12178;BME280;6152;48.728;9.256;2023-04-24T00:53:21;96104.44;;;9.72;100.00
12178;BME280;6152;48.728;9.256;2023-04-24T00:55:47;96105.13;;;9.74;100.00
12178;BME280;6152;48.728;9.256;2023-04-24T00:58:13;96106.56;;;9.78;100.00
12178;BME280;6152;48.728;9.256;2023-04-24T01:00:39;96099.59;;;9.78;100.00
12178;BME280;6152;48.728;9.256;2023-04-24T01:03:07;96092.41;;;9.82;100.00
12178;BME280;6152;48.728;9.256;2023-04-24T01:05:33;96088.84;;;9.83;100.00
12178;BME280;6152;48.728;9.256;2023-04-24T01:08:00;96083.47;;;9.86;100.00
12178;BME280;6152;48.728;9.256;2023-04-24T01:10:27;96085.09;;;9.87;100.00
12178;BME280;6152;48.728;9.256;2023-04-24T01:12:56;96082.16;;;9.91;100.00
12178;BME280;6152;48.728;9.256;2023-04-24T01:15:22;96085.38;;;9.95;100.00
12178;BME280;6152;48.728;9.256;2023-04-24T01:17:48;96089.50;;;9.97;100.00
12178;BME280;6152;48.728;9.256;2023-04-24T01:20:14;96078.03;;;10.00;100.00
12178;BME280;6152;48.728;9.256;2023-04-24T01:22:41;96072.63;;;10.03;100.00
12178;BME280;6152;48.728;9.256;2023-04-24T01:25:08;96084.34;;;10.08;100.00
12178;BME280;6152;48.728;9.256;2023-04-24T01:27:34;96077.22;;;10.10;100.00
12178;BME280;6152;48.728;9.256;2023-04-24T01:30:01;96072.66;;;10.14;100.00
12178;BME280;6152;48.728;9.256;2023-04-24T01:32:28;96079.28;;;10.18;100.00
12178;BME280;6152;48.728;9.256;2023-04-24T01:34:55;96078.47;;;10.18;100.00
12178;BME280;6152;48.728;9.256;2023-04-24T01:37:21;96075.53;;;10.22;100.00
12178;BME280;6152;48.728;9.256;2023-04-24T01:39:47;96068.06;;;10.18;100.00
12178;BME280;6152;48.728;9.256;2023-04-24T01:42:14;96071.72;;;10.15;100.00
12178;BME280;6152;48.728;9.256;2023-04-24T01:44:41;96071.22;;;10.10;100.00
12178;BME280;6152;48.728;9.256;2023-04-24T01:47:07;96059.50;;;10.04;100.00
12178;BME280;6152;48.728;9.256;2023-04-24T01:49:34;96061.50;;;10.01;100.00
12178;BME280;6152;48.728;9.256;2023-04-24T01:52:00;96070.38;;;9.98;100.00
12178;BME280;6152;48.728;9.256;2023-04-24T01:54:26;96071.44;;;9.96;100.00
12178;BME280;6152;48.728;9.256;2023-04-24T01:56:52;96063.75;;;9.94;100.00
12178;BME280;6152;48.728;9.256;2023-04-24T01:59:21;96062.91;;;9.94;100.00
12178;BME280;6152;48.728;9.256;2023-04-24T02:01:49;96061.75;;;9.98;100.00
12178;BME280;6152;48.728;9.256;2023-04-24T02:04:15;96073.44;;;9.92;100.00
12178;BME280;6152;48.728;9.256;2023-04-24T02:06:41;96068.47;;;9.89;100.00
12178;BME280;6152;48.728;9.256;2023-04-24T02:09:07;96063.72;;;9.83;100.00
12178;BME280;6152;48.728;9.256;2023-04-24T02:11:33;96063.09;;;9.80;100.00
12178;BME280;6152;48.728;9.256;2023-04-24T02:13:59;96069.97;;;9.81;100.00
12178;BME280;6152;48.728;9.256;2023-04-24T02:16:26;96064.06;;;9.79;100.00
12178;BME280;6152;48.728;9.256;2023-04-24T02:18:52;96069.97;;;9.81;100.00
12178;BME280;6152;48.728;9.256;2023-04-24T02:21:18;96058.75;;;9.80;100.00
12178;BME280;6152;48.728;9.256;2023-04-24T02:23:44;96059.06;;;9.76;100.00
12178;BME280;6152;48.728;9.256;2023-04-24T02:26:10;96061.91;;;9.73;100.00
12178;BME280;6152;48.728;9.256;2023-04-24T02:28:36;96054.84;;;9.75;100.00
12178;BME280;6152;48.728;9.256;2023-04-24T02:31:03;96055.78;;;9.74;100.00
12178;BME280;6152;48.728;9.256;2023-04-24T02:33:29;96059.31;;;9.73;100.00
12178;BME280;6152;48.728;9.256;2023-04-24T02:35:55;96067.94;;;9.73;100.00
12178;BME280;6152;48.728;9.256;2023-04-24T02:38:21;96062.13;;;9.70;100.00
12178;BME280;6152;48.728;9.256;2023-04-24T02:40:47;96062.13;;;9.70;100.00
12178;BME280;6152;48.728;9.256;2023-04-24T02:43:13;96064.63;;;9.71;100.00
12178;BME280;6152;48.728;9.256;2023-04-24T02:45:39;96066.16;;;9.74;100.00
12178;BME280;6152;48.728;9.256;2023-04-24T02:48:05;96060.28;;;9.72;100.00
12178;BME280;6152;48.728;9.256;2023-04-24T02:50:32;96062.75;;;9.73;100.00
12178;BME280;6152;48.728;9.256;2023-04-24T02:52:59;96072.06;;;9.76;100.00
12178;BME280;6152;48.728;9.256;2023-04-24T02:55:25;96063.34;;;9.77;100.00
12178;BME280;6152;48.728;9.256;2023-04-24T02:57:51;96072.66;;;9.79;100.00
12178;BME280;6152;48.728;9.256;2023-04-24T03:00:17;96068.06;;;9.83;100.00
12178;BME280;6152;48.728;9.256;2023-04-24T03:02:43;96076.38;;;9.88;100.00
12178;BME280;6152;48.728;9.256;2023-04-24T03:05:10;96071.78;;;9.91;100.00
12178;BME280;6152;48.728;9.256;2023-04-24T03:07:37;96069.78;;;9.95;100.00
12178;BME280;6152;48.728;9.256;2023-04-24T03:10:04;96071.44;;;9.96;100.00
12178;BME280;6152;48.728;9.256;2023-04-24T03:12:31;96074.75;;;9.98;100.00
12178;BME280;6152;48.728;9.256;2023-04-24T03:14:57;96072.97;;;9.98;100.00
12178;BME280;6152;48.728;9.256;2023-04-24T03:17:23;96049.91;;;9.94;100.00
12178;BME280;6152;48.728;9.256;2023-04-24T03:19:49;96054.03;;;9.85;100.00
12178;BME280;6152;48.728;9.256;2023-04-24T03:22:16;96052.34;;;9.73;100.00
12178;BME280;6152;48.728;9.256;2023-04-24T03:24:42;96037.91;;;9.58;100.00
12178;BME280;6152;48.728;9.256;2023-04-24T03:27:08;96030.78;;;9.49;100.00
12178;BME280;6152;48.728;9.256;2023-04-24T03:29:34;96047.88;;;9.40;100.00
12178;BME280;6152;48.728;9.256;2023-04-24T03:32:00;96045.22;;;9.29;100.00
12178;BME280;6152;48.728;9.256;2023-04-24T03:34:26;96049.72;;;9.27;100.00
12178;BME280;6152;48.728;9.256;2023-04-24T03:36:52;96053.47;;;9.23;100.00
12178;BME280;6152;48.728;9.256;2023-04-24T03:39:18;96050.97;;;9.22;100.00
12178;BME280;6152;48.728;9.256;2023-04-24T03:41:44;96055.78;;;9.15;100.00
12178;BME280;6152;48.728;9.256;2023-04-24T03:44:10;96046.31;;;9.14;100.00
12178;BME280;6152;48.728;9.256;2023-04-24T03:46:37;96052.34;;;9.14;100.00
12178;BME280;6152;48.728;9.256;2023-04-24T03:49:03;96046.22;;;9.16;100.00
12178;BME280;6152;48.728;9.256;2023-04-24T03:51:29;96050.81;;;9.12;100.00
12178;BME280;6152;48.728;9.256;2023-04-24T03:53:57;96047.50;;;9.10;100.00
12178;BME280;6152;48.728;9.256;2023-04-24T03:56:23;96047.00;;;9.05;100.00
12178;BME280;6152;48.728;9.256;2023-04-24T03:58:49;96048.38;;;8.98;100.00
12178;BME280;6152;48.728;9.256;2023-04-24T04:01:15;96047.75;;;8.94;100.00
12178;BME280;6152;48.728;9.256;2023-04-24T04:03:42;96055.84;;;8.90;100.00
12178;BME280;6152;48.728;9.256;2023-04-24T04:06:08;96051.09;;;8.84;100.00
12178;BME280;6152;48.728;9.256;2023-04-24T04:08:36;96056.28;;;8.84;100.00
12178;BME280;6152;48.728;9.256;2023-04-24T04:11:03;96056.91;;;8.87;100.00
12178;BME280;6152;48.728;9.256;2023-04-24T04:13:29;96064.91;;;8.84;100.00
12178;BME280;6152;48.728;9.256;2023-04-24T04:15:55;96061.69;;;8.81;100.00
12178;BME280;6152;48.728;9.256;2023-04-24T04:18:21;96063.97;;;8.85;100.00
12178;BME280;6152;48.728;9.256;2023-04-24T04:20:47;96068.13;;;8.88;100.00
12178;BME280;6152;48.728;9.256;2023-04-24T04:23:13;96074.53;;;8.95;100.00
12178;BME280;6152;48.728;9.256;2023-04-24T04:25:39;96084.69;;;8.98;100.00
12178;BME280;6152;48.728;9.256;2023-04-24T04:28:05;96086.13;;;9.02;100.00
12178;BME280;6152;48.728;9.256;2023-04-24T04:30:32;96083.31;;;9.05;100.00
12178;BME280;6152;48.728;9.256;2023-04-24T04:32:58;96096.69;;;9.11;100.00
12178;BME280;6152;48.728;9.256;2023-04-24T04:35:25;96110.97;;;9.17;100.00
12178;BME280;6152;48.728;9.256;2023-04-24T04:37:51;96117.63;;;9.21;100.00
12178;BME280;6152;48.728;9.256;2023-04-24T04:40:17;96143.78;;;9.31;100.00
12178;BME280;6152;48.728;9.256;2023-04-24T04:42:43;96144.81;;;9.28;100.00
12178;BME280;6152;48.728;9.256;2023-04-24T04:45:12;96150.53;;;9.21;100.00
12178;BME280;6152;48.728;9.256;2023-04-24T04:47:38;96151.72;;;9.04;100.00
12178;BME280;6152;48.728;9.256;2023-04-24T04:50:05;96150.81;;;8.92;100.00
12178;BME280;6152;48.728;9.256;2023-04-24T04:52:32;96148.44;;;8.77;100.00
12178;BME280;6152;48.728;9.256;2023-04-24T04:54:58;96159.47;;;8.55;100.00
12178;BME280;6152;48.728;9.256;2023-04-24T04:57:24;96148.47;;;8.39;100.00
12178;BME280;6152;48.728;9.256;2023-04-24T04:59:51;96151.84;;;8.27;100.00
12178;BME280;6152;48.728;9.256;2023-04-24T05:02:17;96155.16;;;8.16;100.00
12178;BME280;6152;48.728;9.256;2023-04-24T05:04:43;96149.03;;;8.17;100.00
12178;BME280;6152;48.728;9.256;2023-04-24T05:07:09;96162.50;;;8.09;100.00
12178;BME280;6152;48.728;9.256;2023-04-24T05:09:35;96157.09;;;8.00;100.00
12178;BME280;6152;48.728;9.256;2023-04-24T05:12:02;96166.72;;;7.98;100.00
12178;BME280;6152;48.728;9.256;2023-04-24T05:14:28;96169.59;;;7.93;100.00
12178;BME280;6152;48.728;9.256;2023-04-24T05:16:54;96167.03;;;7.93;100.00
12178;BME280;6152;48.728;9.256;2023-04-24T05:19:20;96173.03;;;7.94;100.00
12178;BME280;6152;48.728;9.256;2023-04-24T05:21:46;96177.19;;;7.96;100.00
12178;BME280;6152;48.728;9.256;2023-04-24T05:24:12;96172.31;;;7.92;100.00
12178;BME280;6152;48.728;9.256;2023-04-24T05:26:38;96191.50;;;8.02;100.00
12178;BME280;6152;48.728;9.256;2023-04-24T05:29:05;96195.03;;;8.01;100.00
12178;BME280;6152;48.728;9.256;2023-04-24T05:31:31;96202.72;;;8.02;100.00
12178;BME280;6152;48.728;9.256;2023-04-24T05:33:57;96196.28;;;8.08;100.00
12178;BME280;6152;48.728;9.256;2023-04-24T05:36:23;96202.94;;;8.12;100.00
12178;BME280;6152;48.728;9.256;2023-04-24T05:38:50;96213.28;;;8.12;100.00
12178;BME280;6152;48.728;9.256;2023-04-24T05:41:16;96216.72;;;8.12;100.00
12178;BME280;6152;48.728;9.256;2023-04-24T05:43:42;96217.56;;;8.13;100.00
12178;BME280;6152;48.728;9.256;2023-04-24T05:46:08;96228.63;;;8.15;100.00
12178;BME280;6152;48.728;9.256;2023-04-24T05:48:34;96233.63;;;8.18;100.00
12178;BME280;6152;48.728;9.256;2023-04-24T05:51:01;96234.38;;;8.20;100.00
12178;BME280;6152;48.728;9.256;2023-04-24T05:53:27;96238.41;;;8.24;100.00
12178;BME280;6152;48.728;9.256;2023-04-24T05:55:53;96236.38;;;8.29;100.00
12178;BME280;6152;48.728;9.256;2023-04-24T05:58:19;96244.88;;;8.31;100.00
12178;BME280;6152;48.728;9.256;2023-04-24T06:00:45;96250.69;;;8.35;100.00
12178;BME280;6152;48.728;9.256;2023-04-24T06:03:12;96247.09;;;8.37;100.00
12178;BME280;6152;48.728;9.256;2023-04-24T06:05:38;96256.28;;;8.41;100.00
12178;BME280;6152;48.728;9.256;2023-04-24T06:08:04;96255.38;;;8.42;100.00
12178;BME280;6152;48.728;9.256;2023-04-24T06:10:31;96254.25;;;8.46;100.00
12178;BME280;6152;48.728;9.256;2023-04-24T06:12:57;96254.88;;;8.50;100.00
12178;BME280;6152;48.728;9.256;2023-04-24T06:15:29;96256.97;;;8.57;100.00
12178;BME280;6152;48.728;9.256;2023-04-24T06:17:58;96251.16;;;8.67;100.00
12178;BME280;6152;48.728;9.256;2023-04-24T06:20:25;96247.44;;;8.71;100.00
12178;BME280;6152;48.728;9.256;2023-04-24T06:22:51;96247.84;;;8.65;100.00
12178;BME280;6152;48.728;9.256;2023-04-24T06:25:18;96249.91;;;8.59;100.00
12178;BME280;6152;48.728;9.256;2023-04-24T06:27:45;96245.75;;;8.57;100.00
12178;BME280;6152;48.728;9.256;2023-04-24T06:30:11;96250.75;;;8.60;100.00
12178;BME280;6152;48.728;9.256;2023-04-24T06:32:37;96244.72;;;8.59;100.00
12178;BME280;6152;48.728;9.256;2023-04-24T06:35:04;96247.22;;;8.61;100.00
12178;BME280;6152;48.728;9.256;2023-04-24T06:37:30;96252.28;;;8.62;100.00
12178;BME280;6152;48.728;9.256;2023-04-24T06:39:58;96253.03;;;8.65;100.00
12178;BME280;6152;48.728;9.256;2023-04-24T06:42:24;96249.50;;;8.66;100.00
12178;BME280;6152;48.728;9.256;2023-04-24T06:44:50;96245.03;;;8.68;100.00
12178;BME280;6152;48.728;9.256;2023-04-24T06:47:16;96239.56;;;8.85;100.00
12178;BME280;6152;48.728;9.256;2023-04-24T06:49:43;96243.91;;;8.97;100.00
12178;BME280;6152;48.728;9.256;2023-04-24T06:52:09;96238.59;;;9.11;100.00
12178;BME280;6152;48.728;9.256;2023-04-24T06:54:35;96245.34;;;9.26;100.00
12178;BME280;6152;48.728;9.256;2023-04-24T06:57:01;96245.69;;;9.58;100.00
12178;BME280;6152;48.728;9.256;2023-04-24T06:59:29;96254.53;;;9.79;100.00
12178;BME280;6152;48.728;9.256;2023-04-24T07:01:56;96266.56;;;9.93;100.00
12178;BME280;6152;48.728;9.256;2023-04-24T07:04:22;96267.72;;;10.12;100.00
12178;BME280;6152;48.728;9.256;2023-04-24T07:06:48;96263.25;;;10.27;100.00
12178;BME280;6152;48.728;9.256;2023-04-24T07:09:20;96263.25;;;10.38;100.00
12178;BME280;6152;48.728;9.256;2023-04-24T07:11:46;96255.41;;;10.62;100.00
12178;BME280;6152;48.728;9.256;2023-04-24T07:14:13;96258.81;;;11.08;100.00
12178;BME280;6152;48.728;9.256;2023-04-24T07:16:39;96257.28;;;11.39;100.00
12178;BME280;6152;48.728;9.256;2023-04-24T07:19:05;96259.28;;;11.69;100.00
12178;BME280;6152;48.728;9.256;2023-04-24T07:21:32;96262.63;;;11.82;100.00
12178;BME280;6152;48.728;9.256;2023-04-24T07:23:58;96270.06;;;11.76;100.00
12178;BME280;6152;48.728;9.256;2023-04-24T07:26:26;96269.63;;;11.82;100.00
12178;BME280;6152;48.728;9.256;2023-04-24T07:28:52;96269.84;;;11.56;100.00
12178;BME280;6152;48.728;9.256;2023-04-24T07:31:18;96276.03;;;11.44;100.00
12178;BME280;6152;48.728;9.256;2023-04-24T07:33:44;96282.03;;;11.23;100.00
12178;BME280;6152;48.728;9.256;2023-04-24T07:36:11;96285.91;;;10.95;100.00
12178;BME280;6152;48.728;9.256;2023-04-24T07:38:42;96295.06;;;10.77;100.00
12178;BME280;6152;48.728;9.256;2023-04-24T07:41:08;96290.09;;;10.74;100.00
12178;BME280;6152;48.728;9.256;2023-04-24T07:43:35;96296.56;;;10.92;100.00
12178;BME280;6152;48.728;9.256;2023-04-24T07:46:02;96303.63;;;10.90;100.00
12178;BME280;6152;48.728;9.256;2023-04-24T07:48:28;96299.88;;;11.05;100.00
12178;BME280;6152;48.728;9.256;2023-04-24T07:50:54;96296.56;;;11.14;100.00
12178;BME280;6152;48.728;9.256;2023-04-24T07:53:20;96301.09;;;11.12;100.00
12178;BME280;6152;48.728;9.256;2023-04-24T07:55:47;96293.16;;;11.13;100.00
12178;BME280;6152;48.728;9.256;2023-04-24T07:58:13;96305.13;;;11.27;100.00
12178;BME280;6152;48.728;9.256;2023-04-24T08:00:39;96300.78;;;11.72;100.00
12178;BME280;6152;48.728;9.256;2023-04-24T08:03:05;96310.09;;;12.08;100.00
12178;BME280;6152;48.728;9.256;2023-04-24T08:05:31;96322.59;;;12.36;100.00
12178;BME280;6152;48.728;9.256;2023-04-24T08:07:58;96336.44;;;12.48;100.00
12178;BME280;6152;48.728;9.256;2023-04-24T08:10:24;96327.25;;;12.64;100.00
12178;BME280;6152;48.728;9.256;2023-04-24T08:12:51;96323.88;;;13.26;100.00
12178;BME280;6152;48.728;9.256;2023-04-24T08:15:17;96334.16;;;13.48;100.00
12178;BME280;6152;48.728;9.256;2023-04-24T08:17:44;96330.38;;;13.62;97.52
12178;BME280;6152;48.728;9.256;2023-04-24T08:20:11;96333.75;;;13.23;92.75
12178;BME280;6152;48.728;9.256;2023-04-24T08:22:43;96335.19;;;13.36;90.38
12178;BME280;6152;48.728;9.256;2023-04-24T08:25:10;96343.31;;;13.12;83.31
12178;BME280;6152;48.728;9.256;2023-04-24T08:27:37;96347.16;;;12.97;82.12
12178;BME280;6152;48.728;9.256;2023-04-24T08:30:04;96347.53;;;12.93;84.98
12178;BME280;6152;48.728;9.256;2023-04-24T08:32:30;96355.25;;;12.94;90.18
12178;BME280;6152;48.728;9.256;2023-04-24T08:34:57;96349.38;;;13.02;88.76
12178;BME280;6152;48.728;9.256;2023-04-24T08:37:25;96350.66;;;13.07;89.72
12178;BME280;6152;48.728;9.256;2023-04-24T08:39:51;96356.91;;;13.88;84.82
12178;BME280;6152;48.728;9.256;2023-04-24T08:42:18;96363.78;;;15.26;68.48
12178;BME280;6152;48.728;9.256;2023-04-24T08:44:45;96352.66;;;16.62;56.03
12178;BME280;6152;48.728;9.256;2023-04-24T08:47:12;96350.69;;;17.17;53.14
12178;BME280;6152;48.728;9.256;2023-04-24T08:49:39;96355.34;;;17.41;49.69
12178;BME280;6152;48.728;9.256;2023-04-24T08:52:08;96356.22;;;17.49;47.22
12178;BME280;6152;48.728;9.256;2023-04-24T08:54:35;96347.88;;;17.54;47.50
12178;BME280;6152;48.728;9.256;2023-04-24T08:57:02;96365.81;;;16.80;48.31
12178;BME280;6152;48.728;9.256;2023-04-24T08:59:29;96354.06;;;15.46;52.08
12178;BME280;6152;48.728;9.256;2023-04-24T09:01:57;96359.22;;;14.71;57.96
12178;BME280;6152;48.728;9.256;2023-04-24T09:04:24;96354.50;;;14.05;62.29
12178;BME280;6152;48.728;9.256;2023-04-24T09:06:58;96355.84;;;13.60;68.08
12178;BME280;6152;48.728;9.256;2023-04-24T09:09:24;96355.09;;;14.18;67.14
12178;BME280;6152;48.728;9.256;2023-04-24T09:11:51;96371.47;;;16.03;59.14
12178;BME280;6152;48.728;9.256;2023-04-24T09:14:20;96364.00;;;16.98;50.61
12178;BME280;6152;48.728;9.256;2023-04-24T09:16:47;96356.56;;;18.98;48.51
12178;BME280;6152;48.728;9.256;2023-04-24T09:19:14;96348.47;;;19.80;43.60
12178;BME280;6152;48.728;9.256;2023-04-24T09:21:40;96366.34;;;20.33;42.18
12178;BME280;6152;48.728;9.256;2023-04-24T09:24:19;96368.88;;;20.57;39.47
12178;BME280;6152;48.728;9.256;2023-04-24T09:26:49;96378.69;;;19.45;41.52
12178;BME280;6152;48.728;9.256;2023-04-24T09:29:19;96378.59;;;18.73;42.41
12178;BME280;6152;48.728;9.256;2023-04-24T09:31:45;96375.59;;;18.26;43.69
12178;BME280;6152;48.728;9.256;2023-04-24T09:34:12;96380.44;;;17.35;44.14
12178;BME280;6152;48.728;9.256;2023-04-24T09:36:42;96376.81;;;16.11;46.85
12178;BME280;6152;48.728;9.256;2023-04-24T09:39:13;96393.84;;;15.60;49.66
12178;BME280;6152;48.728;9.256;2023-04-24T09:41:51;96385.00;;;15.13;51.87
12178;BME280;6152;48.728;9.256;2023-04-24T09:44:19;96388.00;;;16.13;47.01
12178;BME280;6152;48.728;9.256;2023-04-24T09:46:55;96383.78;;;17.02;44.16
12178;BME280;6152;48.728;9.256;2023-04-24T09:49:27;96380.09;;;17.12;40.78
12178;BME280;6152;48.728;9.256;2023-04-24T09:52:07;96390.06;;;16.74;40.93
12178;BME280;6152;48.728;9.256;2023-04-24T09:54:33;96388.66;;;17.76;39.98
12178;BME280;6152;48.728;9.256;2023-04-24T09:56:59;96391.38;;;19.26;38.33
12178;BME280;6152;48.728;9.256;2023-04-24T09:59:26;96380.19;;;20.74;36.39
12178;BME280;6152;48.728;9.256;2023-04-24T10:01:52;96374.19;;;21.11;33.84
12178;BME280;6152;48.728;9.256;2023-04-24T10:06:46;96397.28;;;21.62;33.71
12178;BME280;6152;48.728;9.256;2023-04-24T10:09:12;96403.09;;;19.88;34.47
12178;BME280;6152;48.728;9.256;2023-04-24T10:11:46;96409.06;;;18.33;36.40
12178;BME280;6152;48.728;9.256;2023-04-24T10:14:14;96406.69;;;17.09;39.71
12178;BME280;6152;48.728;9.256;2023-04-24T10:16:42;96418.91;;;17.01;40.41
12178;BME280;6152;48.728;9.256;2023-04-24T10:19:09;96406.44;;;18.41;38.65
12178;BME280;6152;48.728;9.256;2023-04-24T10:21:35;96397.97;;;20.57;35.62
12178;BME280;6152;48.728;9.256;2023-04-24T10:24:08;96401.53;;;21.72;34.17
12178;BME280;6152;48.728;9.256;2023-04-24T10:26:35;96405.47;;;22.42;31.07
12178;BME280;6152;48.728;9.256;2023-04-24T10:29:02;96403.25;;;22.60;30.71
12178;BME280;6152;48.728;9.256;2023-04-24T10:31:32;96403.06;;;23.97;28.97
12178;BME280;6152;48.728;9.256;2023-04-24T10:33:59;96406.81;;;24.03;28.75
12178;BME280;6152;48.728;9.256;2023-04-24T10:36:28;96405.41;;;25.23;28.35
12178;BME280;6152;48.728;9.256;2023-04-24T10:38:56;96408.28;;;25.48;26.85
12178;BME280;6152;48.728;9.256;2023-04-24T10:41:26;96401.09;;;24.06;28.21
12178;BME280;6152;48.728;9.256;2023-04-24T10:44:09;96410.59;;;22.29;30.30
12178;BME280;6152;48.728;9.256;2023-04-24T10:46:43;96398.94;;;20.56;32.93
12178;BME280;6152;48.728;9.256;2023-04-24T10:49:10;96409.16;;;20.04;33.25
12178;BME280;6152;48.728;9.256;2023-04-24T10:51:47;96415.31;;;19.56;35.21
12178;BME280;6152;48.728;9.256;2023-04-24T10:56:53;96429.91;;;18.52;37.98
12178;BME280;6152;48.728;9.256;2023-04-24T10:59:39;96416.81;;;17.22;40.03
12178;BME280;6152;48.728;9.256;2023-04-24T11:02:07;96425.44;;;16.15;42.13
12178;BME280;6152;48.728;9.256;2023-04-24T11:04:34;96433.03;;;15.24;44.56
12178;BME280;6152;48.728;9.256;2023-04-24T11:07:04;96438.13;;;14.37;47.54
12178;BME280;6152;48.728;9.256;2023-04-24T11:09:31;96424.53;;;14.23;48.81
12178;BME280;6152;48.728;9.256;2023-04-24T11:12:09;96436.75;;;13.82;52.51
12178;BME280;6152;48.728;9.256;2023-04-24T11:17:34;96440.31;;;13.19;56.56
12178;BME280;6152;48.728;9.256;2023-04-24T11:20:07;96460.28;;;13.09;55.58
12178;BME280;6152;48.728;9.256;2023-04-24T11:22:36;96457.44;;;12.90;55.71
12178;BME280;6152;48.728;9.256;2023-04-24T11:25:03;96463.44;;;12.58;57.18
12178;BME280;6152;48.728;9.256;2023-04-24T11:27:39;96464.88;;;12.62;60.21
12178;BME280;6152;48.728;9.256;2023-04-24T11:30:06;96462.06;;;12.54;60.10
12178;BME280;6152;48.728;9.256;2023-04-24T11:32:36;96462.16;;;12.42;62.18
12178;BME280;6152;48.728;9.256;2023-04-24T11:35:20;96468.22;;;12.42;64.96
12178;BME280;6152;48.728;9.256;2023-04-24T11:37:54;96467.03;;;12.57;61.20
12178;BME280;6152;48.728;9.256;2023-04-24T11:40:22;96468.41;;;12.73;59.59
12178;BME280;6152;48.728;9.256;2023-04-24T11:42:50;96470.75;;;13.09;58.39
12178;BME280;6152;48.728;9.256;2023-04-24T11:45:24;96478.44;;;13.42;57.27
12178;BME280;6152;48.728;9.256;2023-04-24T11:47:51;96470.28;;;13.56;55.99
12178;BME280;6152;48.728;9.256;2023-04-24T11:50:21;96475.31;;;13.69;56.53
12178;BME280;6152;48.728;9.256;2023-04-24T11:52:49;96477.28;;;13.35;57.28
12178;BME280;6152;48.728;9.256;2023-04-24T11:57:49;96496.19;;;12.62;73.16
12178;BME280;6152;48.728;9.256;2023-04-24T12:00:27;96500.94;;;12.24;76.33
12178;BME280;6152;48.728;9.256;2023-04-24T12:03:04;96484.09;;;11.95;73.66
12178;BME280;6152;48.728;9.256;2023-04-24T12:05:31;96488.38;;;12.07;72.59
12178;BME280;6152;48.728;9.256;2023-04-24T12:07:57;96489.09;;;12.42;68.77
12178;BME280;6152;48.728;9.256;2023-04-24T12:10:25;96489.59;;;13.12;64.32
12178;BME280;6152;48.728;9.256;2023-04-24T12:12:52;96486.94;;;14.48;57.20
12178;BME280;6152;48.728;9.256;2023-04-24T12:15:20;96480.88;;;16.49;51.32
12178;BME280;6152;48.728;9.256;2023-04-24T12:17:46;96491.94;;;17.07;47.04
12178;BME280;6152;48.728;9.256;2023-04-24T12:20:14;96485.53;;;16.64;46.03
12178;BME280;6152;48.728;9.256;2023-04-24T12:22:49;96503.41;;;15.47;49.60
12178;BME280;6152;48.728;9.256;2023-04-24T12:25:17;96497.19;;;14.60;53.01
12178;BME280;6152;48.728;9.256;2023-04-24T12:27:45;96496.38;;;13.88;56.05
12178;BME280;6152;48.728;9.256;2023-04-24T12:30:14;96487.41;;;12.86;66.06
12178;BME280;6152;48.728;9.256;2023-04-24T12:32:48;96499.41;;;12.66;64.99
12178;BME280;6152;48.728;9.256;2023-04-24T12:35:20;96493.25;;;12.23;67.46
12178;BME280;6152;48.728;9.256;2023-04-24T12:37:48;96494.31;;;12.53;68.46
12178;BME280;6152;48.728;9.256;2023-04-24T12:40:17;96502.59;;;12.81;66.29
12178;BME280;6152;48.728;9.256;2023-04-24T12:42:45;96499.22;;;13.01;65.39
12178;BME280;6152;48.728;9.256;2023-04-24T12:45:12;96503.91;;;13.29;58.64
12178;BME280;6152;48.728;9.256;2023-04-24T12:47:39;96504.91;;;13.17;59.38
12178;BME280;6152;48.728;9.256;2023-04-24T12:50:09;96504.94;;;13.38;61.74
12178;BME280;6152;48.728;9.256;2023-04-24T12:52:35;96498.03;;;13.16;60.25
12178;BME280;6152;48.728;9.256;2023-04-24T12:55:02;96496.75;;;12.88;63.42
12178;BME280;6152;48.728;9.256;2023-04-24T12:57:29;96494.72;;;13.03;63.93
12178;BME280;6152;48.728;9.256;2023-04-24T12:59:57;96503.28;;;12.83;65.46
12178;BME280;6152;48.728;9.256;2023-04-24T13:02:25;96513.03;;;12.70;65.98
12178;BME280;6152;48.728;9.256;2023-04-24T13:04:52;96508.56;;;12.16;65.67
12178;BME280;6152;48.728;9.256;2023-04-24T13:07:18;96510.19;;;11.95;68.87
12178;BME280;6152;48.728;9.256;2023-04-24T13:09:45;96518.13;;;11.70;71.37
12178;BME280;6152;48.728;9.256;2023-04-24T13:12:12;96509.69;;;11.55;73.87
12178;BME280;6152;48.728;9.256;2023-04-24T13:14:38;96511.47;;;11.54;78.11
12178;BME280;6152;48.728;9.256;2023-04-24T13:17:05;96507.91;;;11.44;86.74
12178;BME280;6152;48.728;9.256;2023-04-24T13:19:39;96519.47;;;11.40;85.01
12178;BME280;6152;48.728;9.256;2023-04-24T13:22:06;96525.66;;;11.50;91.06